createdAt,value
2018-10-11T00:03:59.823Z,86.49
2018-10-11T00:09:04.724Z,86.74
2018-10-11T00:14:08.511Z,87.87
2018-10-11T00:19:12.096Z,88.05
2018-10-11T00:24:15.904Z,88.99
2018-10-11T00:29:19.447Z,89.97
2018-10-11T00:34:30.339Z,91.17
2018-10-11T00:39:33.877Z,91.42
2018-10-11T00:44:37.451Z,91.40
2018-10-11T00:49:41.022Z,90.75
2018-10-11T00:54:44.567Z,91.57
2018-10-11T00:59:48.509Z,91.75
2018-10-11T01:04:52.071Z,92.11
2018-10-11T01:09:55.709Z,91.25
2018-10-11T01:14:59.331Z,90.91
2018-10-11T01:20:02.906Z,89.19
2018-10-11T01:25:06.394Z,89.76
2018-10-11T01:30:11.666Z,89.70
2018-10-11T01:35:15.265Z,88.30
2018-10-11T01:40:18.846Z,88.45
2018-10-11T01:45:22.482Z,89.59
2018-10-11T01:50:26.406Z,89.36
2018-10-11T01:55:30.078Z,89.73
2018-10-11T02:00:33.872Z,90.34
2018-10-11T02:05:37.417Z,87.94
2018-10-11T02:10:41.167Z,86.74
2018-10-11T02:15:44.740Z,86.13
2018-10-11T02:20:48.501Z,85.70
2018-10-11T02:25:52.069Z,87.32
2018-10-11T02:30:55.692Z,86.34
2018-10-11T02:35:59.236Z,87.89
2018-10-11T02:41:02.842Z,88.03
2018-10-11T02:46:06.542Z,90.53
2018-10-11T02:51:10.098Z,92.15
2018-10-11T02:56:13.966Z,92.68
2018-10-11T03:01:17.958Z,94.62
2018-10-11T03:06:21.569Z,95.89
2018-10-11T03:11:25.504Z,96.33
2018-10-11T03:16:36.116Z,97.27
2018-10-11T03:21:39.720Z,97.87
2018-10-11T03:26:43.258Z,97.85
2018-10-11T03:31:46.897Z,98.83
2018-10-11T03:36:50.738Z,98.47
2018-10-11T03:41:54.656Z,97.46
2018-10-11T03:46:58.251Z,100.00
2018-10-11T03:52:01.819Z,100.00
2018-10-11T03:57:05.371Z,100.00
2018-10-11T04:02:09.046Z,100.00
2018-10-11T04:07:12.690Z,100.00
2018-10-11T04:12:21.242Z,100.00
2018-10-11T04:17:24.794Z,100.00
2018-10-11T04:22:28.351Z,100.00
2018-10-11T04:27:31.878Z,100.00
2018-10-11T04:32:35.477Z,100.00
2018-10-11T04:37:39.019Z,100.00
2018-10-11T04:42:42.632Z,100.00
2018-10-11T04:47:46.256Z,100.00
2018-10-11T04:52:49.890Z,100.00
2018-10-11T04:57:53.520Z,100.00
2018-10-11T05:02:57.151Z,100.00
2018-10-11T05:08:00.769Z,100.00
2018-10-11T05:13:04.700Z,100.00
2018-10-11T05:18:08.335Z,100.00
2018-10-11T05:23:11.997Z,100.00
2018-10-11T05:28:15.595Z,100.00
2018-10-11T05:33:19.456Z,100.00
2018-10-11T05:38:23.402Z,98.62
2018-10-11T05:43:27.766Z,98.37
2018-10-11T05:48:33.094Z,98.02
2018-10-11T05:53:36.679Z,98.13
2018-10-11T05:58:40.320Z,98.49
2018-10-11T06:03:45.087Z,97.30
2018-10-11T06:08:48.735Z,95.77
2018-10-11T06:13:52.334Z,97.31
2018-10-11T06:18:55.962Z,96.98
2018-10-11T06:23:59.517Z,97.49
2018-10-11T06:29:03.215Z,98.39
2018-10-11T06:34:07.029Z,98.05
2018-10-11T06:39:11.135Z,97.33
2018-10-11T06:44:14.758Z,96.67
2018-10-11T06:49:18.422Z,95.30
2018-10-11T06:54:22.095Z,93.66
2018-10-11T06:59:25.627Z,91.83
2018-10-11T07:04:29.219Z,90.24
2018-10-11T07:09:32.766Z,88.52
2018-10-11T07:14:36.348Z,84.71
2018-10-11T07:19:39.946Z,83.67
2018-10-11T07:24:43.588Z,84.57
2018-10-11T07:29:47.155Z,83.13
2018-10-11T07:34:50.776Z,81.96
2018-10-11T07:39:54.272Z,82.45
2018-10-11T07:44:57.900Z,81.24
2018-10-11T07:50:01.529Z,80.61
2018-10-11T07:55:05.100Z,79.39
2018-10-11T08:00:12.754Z,76.56
2018-10-11T08:05:16.373Z,76.01
2018-10-11T08:10:19.934Z,74.34
2018-10-11T08:15:23.499Z,74.45
2018-10-11T08:20:28.600Z,73.81
2018-10-11T08:25:32.503Z,72.97
2018-10-11T08:30:35.842Z,71.79
2018-10-11T08:35:39.406Z,70.84
2018-10-11T08:40:42.959Z,70.18
2018-10-11T08:45:46.660Z,69.61
2018-10-11T08:50:50.423Z,67.56
2018-10-11T08:55:53.928Z,66.50
2018-10-11T09:00:57.728Z,64.83
2018-10-11T09:06:01.397Z,65.79
2018-10-11T09:11:04.992Z,63.62
2018-10-11T09:16:08.462Z,63.29
2018-10-11T09:21:11.997Z,63.26
2018-10-11T09:26:15.562Z,61.56
2018-10-11T09:31:19.111Z,61.70
2018-10-11T09:36:22.781Z,62.23
2018-10-11T09:41:26.302Z,62.04
2018-10-11T09:46:29.924Z,60.18
2018-10-11T09:51:33.483Z,59.56
2018-10-11T09:57:17.931Z,59.33
2018-10-11T10:02:22.001Z,57.61
2018-10-11T10:07:25.711Z,58.30
2018-10-11T10:12:29.232Z,57.22
2018-10-11T10:17:32.810Z,55.02
2018-10-11T10:22:36.418Z,54.77
2018-10-11T10:27:39.955Z,54.65
2018-10-11T10:32:43.657Z,53.61
2018-10-11T10:37:47.234Z,53.05
2018-10-11T10:42:50.778Z,53.32
2018-10-11T10:47:54.375Z,53.07
2018-10-11T10:52:58.161Z,52.58
2018-10-11T10:58:01.852Z,52.03
2018-10-11T11:03:05.387Z,51.63
2018-10-11T11:08:08.939Z,52.05
2018-10-11T11:13:12.550Z,52.34
2018-10-11T11:18:16.078Z,51.14
2018-10-11T11:23:19.733Z,50.86
2018-10-11T11:28:23.483Z,50.36
2018-10-11T11:33:27.050Z,50.36
2018-10-11T11:38:30.637Z,50.10
2018-10-11T11:43:34.307Z,51.31
2018-10-11T11:48:37.867Z,49.66
2018-10-11T11:53:42.372Z,48.69
2018-10-11T11:58:47.882Z,48.84
2018-10-11T12:03:51.486Z,49.75
2018-10-11T12:08:55.013Z,48.20
2018-10-11T12:13:58.552Z,48.81
2018-10-11T12:19:02.195Z,49.01
2018-10-11T12:24:05.817Z,48.41
2018-10-11T12:29:09.386Z,49.17
2018-10-11T12:34:13.150Z,48.80
2018-10-11T12:39:16.698Z,48.33
2018-10-11T12:44:20.340Z,48.14
2018-10-11T12:49:23.944Z,48.31
2018-10-11T12:54:27.411Z,49.22
2018-10-11T12:59:30.981Z,49.23
2018-10-11T13:04:34.522Z,48.57
2018-10-11T13:09:38.052Z,48.72
2018-10-11T13:14:41.611Z,47.42
2018-10-11T13:19:45.158Z,47.78
2018-10-11T13:24:49.450Z,47.98
2018-10-11T13:29:53.040Z,47.75
2018-10-11T13:34:56.583Z,47.56
2018-10-11T13:40:00.124Z,48.24
2018-10-11T13:45:03.814Z,48.97
2018-10-11T13:50:07.427Z,47.28
2018-10-11T13:55:13.057Z,47.32
2018-10-11T14:00:26.517Z,48.65
2018-10-11T14:05:30.015Z,48.00
2018-10-11T14:10:33.624Z,48.93
2018-10-11T14:15:37.157Z,49.16
2018-10-11T14:20:40.699Z,49.43
2018-10-11T14:25:44.219Z,50.90
2018-10-11T14:30:47.818Z,51.90
2018-10-11T14:35:51.483Z,52.07
2018-10-11T14:40:55.144Z,51.35
2018-10-11T14:45:58.698Z,51.66
2018-10-11T14:51:02.348Z,50.47
2018-10-11T14:56:05.914Z,49.92
2018-10-11T15:01:09.455Z,51.24
2018-10-11T15:06:13.526Z,51.05
2018-10-11T15:11:17.098Z,50.00
2018-10-11T15:16:20.658Z,50.98
2018-10-11T15:21:24.230Z,50.23
2018-10-11T15:26:27.759Z,51.21
2018-10-11T15:31:31.318Z,50.28
2018-10-11T15:36:34.944Z,51.17
2018-10-11T15:41:38.860Z,52.55
2018-10-11T15:46:42.944Z,52.24
2018-10-11T15:51:46.641Z,53.43
2018-10-11T15:56:51.358Z,53.36
2018-10-11T16:01:54.984Z,54.10
2018-10-11T16:06:58.530Z,54.83
2018-10-11T16:12:02.213Z,57.19
2018-10-11T16:17:05.832Z,57.46
2018-10-11T16:22:09.423Z,58.15
2018-10-11T16:27:13.043Z,59.18
2018-10-11T16:32:16.927Z,60.54
2018-10-11T16:37:20.439Z,62.27
2018-10-11T16:42:24.111Z,63.53
2018-10-11T16:47:27.820Z,64.89
2018-10-11T16:52:31.395Z,65.62
2018-10-11T16:57:35.294Z,66.80
2018-10-11T17:02:39.073Z,67.01
2018-10-11T17:07:42.713Z,65.83
2018-10-11T17:12:46.706Z,64.24
2018-10-11T17:17:50.311Z,63.50
2018-10-11T17:22:53.965Z,62.68
2018-10-11T17:27:57.624Z,62.81
2018-10-11T17:33:01.294Z,62.44
2018-10-11T17:38:04.920Z,61.54
2018-10-11T17:43:08.506Z,60.56
2018-10-11T17:48:12.112Z,61.40
2018-10-11T17:53:15.757Z,61.48
2018-10-11T17:58:19.404Z,60.21
2018-10-11T18:03:23.020Z,60.06
2018-10-11T18:08:26.976Z,59.47
2018-10-11T18:13:31.018Z,60.22
2018-10-11T18:18:34.796Z,59.80
2018-10-11T18:23:38.374Z,59.36
2018-10-11T18:28:42.063Z,59.38
2018-10-11T18:33:45.587Z,58.43
2018-10-11T18:38:49.147Z,58.31
2018-10-11T18:43:53.580Z,58.09
2018-10-11T18:48:57.254Z,58.12
2018-10-11T18:54:00.848Z,57.71
2018-10-11T18:59:04.433Z,58.68
2018-10-11T19:04:08.121Z,58.41
2018-10-11T19:09:11.703Z,59.32
2018-10-11T19:14:15.400Z,59.02
2018-10-11T19:19:19.125Z,58.71
2018-10-11T19:24:22.916Z,58.50
2018-10-11T19:29:26.515Z,59.35
2018-10-11T19:34:30.083Z,59.09
2018-10-11T19:39:34.660Z,59.65
2018-10-11T19:44:38.369Z,59.75
2018-10-11T19:49:42.514Z,59.89
2018-10-11T19:54:46.208Z,60.76
2018-10-11T19:59:49.810Z,60.33
2018-10-11T20:04:53.471Z,61.24
2018-10-11T20:09:57.454Z,63.29
2018-10-11T20:15:01.808Z,62.63
2018-10-11T20:20:05.679Z,64.53
2018-10-11T20:25:09.684Z,65.37
2018-10-11T20:30:15.320Z,65.18
2018-10-11T20:35:19.027Z,66.80
2018-10-11T20:40:22.694Z,68.41
2018-10-11T20:45:26.312Z,68.12
2018-10-11T20:50:29.887Z,67.97
2018-10-11T20:55:33.436Z,69.23
2018-10-11T21:00:37.403Z,69.15
2018-10-11T21:05:40.974Z,71.70
2018-10-11T21:10:44.981Z,70.95
2018-10-11T21:15:48.825Z,71.59
2018-10-11T21:20:52.479Z,73.27
2018-10-11T21:25:56.142Z,74.56
2018-10-11T21:30:59.739Z,76.88
2018-10-11T21:36:03.307Z,78.15
2018-10-11T21:41:06.904Z,77.66
2018-10-11T21:46:10.467Z,76.35
2018-10-11T21:51:14.050Z,76.56
2018-10-11T21:56:17.663Z,78.67
2018-10-11T22:01:22.687Z,78.21
2018-10-11T22:06:26.234Z,77.33
2018-10-11T22:11:29.865Z,75.64
2018-10-11T22:16:33.642Z,74.69
2018-10-11T22:21:37.514Z,74.60
2018-10-11T22:26:41.077Z,74.25
2018-10-11T22:31:44.625Z,74.14
2018-10-11T22:36:48.248Z,75.04
2018-10-11T22:41:51.791Z,75.37
2018-10-11T22:46:55.415Z,75.42
2018-10-11T22:51:59.169Z,77.22
2018-10-11T22:57:02.855Z,78.20
2018-10-11T23:02:06.557Z,78.97
2018-10-11T23:07:10.506Z,79.35
2018-10-11T23:12:14.094Z,79.62
2018-10-11T23:17:17.701Z,81.01
2018-10-11T23:22:21.254Z,82.30
2018-10-11T23:27:24.844Z,82.95
2018-10-11T23:32:28.409Z,83.00
2018-10-11T23:37:31.940Z,82.79
2018-10-11T23:42:35.519Z,83.25
2018-10-11T23:47:39.131Z,83.15
2018-10-11T23:52:42.654Z,82.98
2018-10-11T23:57:46.261Z,84.65
